Time;durP1;ratioP1;P1;durP2;ratioP2;P2;SDS_P1;SDS_P2;PMS_P1;PMS_P2;Temp;Humidity;BMP_temperature;BMP_pressure;BME280_temperature;BME280_humidity;BME280_pressure;Samples;Min_cycle;Max_cycle;Signal;HPM_P1;HPM_P2
2022/10/10 00:00:39;;;;;;;8.85;3.03;;;;;;;;;;5052973;28;20021;-65
2022/10/10 00:03:05;;;;;;;11.52;3.40;;;;;;;;;;5052214;28;20032;-65
2022/10/10 00:05:30;;;;;;;8.50;3.50;;;;;;;;;;5044044;28;20438;-65
2022/10/10 00:07:56;;;;;;;6.93;3.03;;;;;;;;;;5029347;28;20041;-65
2022/10/10 00:10:21;;;;;;;5.93;2.78;;;;;;;;;;5028749;28;20396;-65
2022/10/10 00:12:47;;;;;;;5.28;3.08;;;;;;;;;;5023068;28;20093;-65
2022/10/10 00:15:14;;;;;;;7.25;2.90;;;;;;;;;;5029696;28;20399;-65
2022/10/10 00:17:42;;;;;;;6.00;2.70;;;;;;;;;;5028972;28;20099;-65
2022/10/10 00:20:12;;;;;;;9.85;3.55;;;;;;;;;;5028585;28;20519;-65
2022/10/10 00:22:37;;;;;;;6.75;3.22;;;;;;;;;;5011062;28;20037;-65
2022/10/10 00:25:04;;;;;;;7.85;2.97;;;;;;;;;;5028415;28;20052;-65
2022/10/10 00:27:29;;;;;;;8.48;3.35;;;;;;;;;;5029383;28;20079;-65
2022/10/10 00:29:54;;;;;;;6.05;3.10;;;;;;;;;;5028281;28;20042;-65
2022/10/10 00:32:20;;;;;;;7.80;3.50;;;;;;;;;;5028663;28;20150;-65
2022/10/10 00:34:45;;;;;;;11.25;2.88;;;;;;;;;;5028232;28;20128;-65
2022/10/10 00:37:10;;;;;;;13.07;4.00;;;;;;;;;;5028833;28;20124;-65
2022/10/10 00:39:36;;;;;;;8.65;3.33;;;;;;;;;;5035469;28;20021;-65
2022/10/10 00:42:01;;;;;;;8.85;2.90;;;;;;;;;;5035648;28;20037;-65
2022/10/10 00:44:27;;;;;;;11.25;4.25;;;;;;;;;;5061291;28;20056;-65
2022/10/10 00:46:52;;;;;;;8.00;2.90;;;;;;;;;;5050330;28;20032;-65
2022/10/10 00:49:23;;;;;;;6.03;3.22;;;;;;;;;;5068269;28;20460;-65
2022/10/10 00:51:53;;;;;;;6.53;2.60;;;;;;;;;;5067827;28;20028;-65
2022/10/10 00:54:20;;;;;;;8.00;3.72;;;;;;;;;;5068571;28;20026;-65
2022/10/10 00:56:54;;;;;;;7.28;4.30;;;;;;;;;;5067525;28;20556;-65
2022/10/10 00:59:20;;;;;;;9.02;3.08;;;;;;;;;;5067518;28;20413;-65
2022/10/10 01:01:46;;;;;;;5.57;3.15;;;;;;;;;;5053361;28;20033;-65
2022/10/10 01:04:34;;;;;;;7.13;3.03;;;;;;;;;;5048528;28;20564;-65
2022/10/10 01:07:01;;;;;;;5.80;3.33;;;;;;;;;;5029725;28;20482;-65
2022/10/10 01:09:27;;;;;;;8.07;3.38;;;;;;;;;;5044036;28;20033;-65
2022/10/10 01:12:22;;;;;;;7.72;3.53;;;;;;;;;;5055650;28;20041;-65
2022/10/10 01:15:04;;;;;;;4.95;2.60;;;;;;;;;;5067703;28;20044;-63
2022/10/10 01:17:34;;;;;;;5.95;3.22;;;;;;;;;;5067259;28;20028;-65
2022/10/10 01:20:27;;;;;;;8.63;3.10;;;;;;;;;;5044447;28;20038;-65
2022/10/10 01:23:14;;;;;;;6.18;3.47;;;;;;;;;;5027989;28;20518;-65
2022/10/10 01:25:52;;;;;;;4.28;2.97;;;;;;;;;;5027848;28;20028;-65
2022/10/10 01:28:29;;;;;;;10.18;4.10;;;;;;;;;;5027685;28;20039;-65
2022/10/10 01:30:56;;;;;;;5.78;2.80;;;;;;;;;;5027356;28;20025;-65
2022/10/10 01:33:37;;;;;;;6.38;2.92;;;;;;;;;;5028240;28;20029;-65
2022/10/10 01:36:17;;;;;;;7.10;3.30;;;;;;;;;;5046334;28;20041;-64
2022/10/10 01:38:50;;;;;;;6.38;3.42;;;;;;;;;;5045022;28;20056;-65
2022/10/10 01:41:17;;;;;;;;;;;;;;;;;;5047968;28;20115;-63
2022/10/10 01:43:42;;;;;;;5.90;2.90;;;;;;;;;;5050366;28;20126;-65
2022/10/10 01:46:09;;;;;;;10.00;2.90;;;;;;;;;;5062420;28;20406;-65
2022/10/10 01:48:34;;;;;;;5.70;3.22;;;;;;;;;;5067884;28;20073;-65
2022/10/10 01:51:12;;;;;;;9.65;3.40;;;;;;;;;;5048585;28;20036;-65
2022/10/10 01:53:49;;;;;;;5.82;2.72;;;;;;;;;;5067533;28;20044;-65
2022/10/10 01:56:41;;;;;;;7.88;3.10;;;;;;;;;;5066784;28;20032;-65
2022/10/10 01:59:51;;;;;;;9.50;3.28;;;;;;;;;;5030117;28;20537;-65
2022/10/10 02:02:22;;;;;;;7.47;3.53;;;;;;;;;;5029035;28;20043;-65
2022/10/10 02:05:11;;;;;;;4.82;2.88;;;;;;;;;;5066746;28;20024;-65
2022/10/10 02:07:48;;;;;;;5.43;2.97;;;;;;;;;;5066551;28;20051;-65
2022/10/10 02:10:19;;;;;;;8.82;3.13;;;;;;;;;;5057467;28;20037;-65
2022/10/10 02:12:46;;;;;;;4.72;2.83;;;;;;;;;;5047292;28;20477;-65
2022/10/10 02:15:15;;;;;;;6.28;3.15;;;;;;;;;;5046887;28;20031;-65
2022/10/10 02:17:44;;;;;;;6.30;2.92;;;;;;;;;;5028462;28;20032;-65
2022/10/10 02:20:11;;;;;;;7.15;3.63;;;;;;;;;;5046711;28;20037;-65
2022/10/10 02:22:40;;;;;;;8.75;2.90;;;;;;;;;;5045534;28;20538;-65
2022/10/10 02:25:06;;;;;;;6.82;3.25;;;;;;;;;;5046356;28;20032;-65
2022/10/10 02:27:56;;;;;;;7.95;3.60;;;;;;;;;;5046796;28;20027;-65
2022/10/10 02:30:22;;;;;;;8.15;3.53;;;;;;;;;;5046551;28;20135;-65
2022/10/10 02:32:57;;;;;;;9.68;3.63;;;;;;;;;;5042438;28;20128;-65
2022/10/10 02:35:28;;;;;;;8.40;3.50;;;;;;;;;;5066503;28;20045;-65
2022/10/10 02:37:54;;;;;;;6.45;3.70;;;;;;;;;;5065835;28;20430;-65
2022/10/10 02:40:26;;;;;;;7.80;3.83;;;;;;;;;;5050757;28;20117;-65
2022/10/10 02:42:53;;;;;;;8.98;3.22;;;;;;;;;;5046201;28;20040;-65
2022/10/10 02:45:19;;;;;;;9.50;4.07;;;;;;;;;;5046150;28;20497;-65
2022/10/10 02:47:45;;;;;;;11.68;4.30;;;;;;;;;;5046051;28;20048;-65
2022/10/10 02:50:10;;;;;;;7.47;3.60;;;;;;;;;;5045745;28;20041;-65
2022/10/10 02:52:36;;;;;;;14.40;3.50;;;;;;;;;;5046262;28;20395;-65
2022/10/10 02:55:02;;;;;;;8.45;3.80;;;;;;;;;;5045308;28;20037;-65
2022/10/10 02:57:27;;;;;;;5.13;3.40;;;;;;;;;;5046557;28;20021;-65
2022/10/10 02:59:52;;;;;;;6.72;3.33;;;;;;;;;;5046117;28;20037;-65
2022/10/10 03:02:18;;;;;;;6.70;3.63;;;;;;;;;;5027790;28;20033;-65
2022/10/10 03:04:43;;;;;;;7.45;3.75;;;;;;;;;;5045548;28;20057;-65
2022/10/10 03:07:09;;;;;;;5.93;2.83;;;;;;;;;;5045746;28;20127;-65
2022/10/10 03:09:34;;;;;;;7.65;3.22;;;;;;;;;;5046350;28;20397;-65
2022/10/10 03:12:00;;;;;;;7.13;3.40;;;;;;;;;;5045574;28;20045;-65
2022/10/10 03:14:25;;;;;;;6.95;3.53;;;;;;;;;;5045678;28;20067;-65
2022/10/10 03:16:50;;;;;;;11.55;3.67;;;;;;;;;;5045922;28;20040;-65
2022/10/10 03:19:16;;;;;;;9.32;3.63;;;;;;;;;;5045072;28;20036;-65
2022/10/10 03:21:41;;;;;;;14.32;3.38;;;;;;;;;;5047543;28;20025;-65
2022/10/10 03:24:06;;;;;;;11.48;3.60;;;;;;;;;;5050167;28;20094;-65
2022/10/10 03:26:31;;;;;;;7.72;3.40;;;;;;;;;;5032136;28;20112;-65
2022/10/10 03:28:57;;;;;;;7.65;3.47;;;;;;;;;;5049618;28;20060;-65
2022/10/10 03:31:22;;;;;;;7.80;3.47;;;;;;;;;;5049813;28;20518;-65
2022/10/10 03:33:47;;;;;;;7.80;3.30;;;;;;;;;;5049587;28;20460;-65
2022/10/10 03:36:13;;;;;;;8.27;3.50;;;;;;;;;;5050010;28;20676;-65
2022/10/10 03:38:39;;;;;;;7.45;3.53;;;;;;;;;;5049620;28;20078;-65
2022/10/10 03:41:04;;;;;;;9.02;3.58;;;;;;;;;;5049894;28;20037;-65
2022/10/10 03:43:30;;;;;;;9.13;3.17;;;;;;;;;;5049437;28;20036;-65
2022/10/10 03:45:55;;;;;;;7.22;3.38;;;;;;;;;;5039079;28;20096;-65
2022/10/10 03:48:21;;;;;;;7.88;3.28;;;;;;;;;;5030099;28;20025;-65
2022/10/10 03:50:46;;;;;;;7.60;3.25;;;;;;;;;;5029440;28;20029;-65
2022/10/10 03:53:11;;;;;;;6.03;3.47;;;;;;;;;;5029190;28;20057;-65
2022/10/10 03:55:41;;;;;;;8.80;3.72;;;;;;;;;;5029371;28;20037;-65
2022/10/10 03:58:07;;;;;;;6.80;3.20;;;;;;;;;;5029107;28;20035;-65
2022/10/10 04:00:32;;;;;;;7.97;3.95;;;;;;;;;;5029880;28;20082;-65
2022/10/10 04:02:58;;;;;;;8.98;3.72;;;;;;;;;;5029148;28;20617;-65
2022/10/10 04:05:23;;;;;;;11.32;4.50;;;;;;;;;;5051721;28;20112;-65
2022/10/10 04:07:48;;;;;;;8.73;3.80;;;;;;;;;;5068924;28;20036;-65
2022/10/10 04:10:14;;;;;;;11.73;3.90;;;;;;;;;;5051067;28;20118;-65
2022/10/10 04:12:39;;;;;;;8.55;3.95;;;;;;;;;;5049949;28;20129;-64
2022/10/10 04:15:05;;;;;;;8.18;3.70;;;;;;;;;;5029416;28;20112;-65
2022/10/10 04:17:30;;;;;;;8.10;3.72;;;;;;;;;;5028365;28;20049;-65
2022/10/10 04:19:55;;;;;;;10.57;4.15;;;;;;;;;;5028941;28;20136;-65
2022/10/10 04:22:21;;;;;;;7.28;4.00;;;;;;;;;;5028346;28;20790;-65
2022/10/10 04:24:46;;;;;;;9.98;3.85;;;;;;;;;;5028219;28;20017;-65
2022/10/10 04:27:12;;;;;;;8.27;3.67;;;;;;;;;;5029327;28;20121;-65
2022/10/10 04:29:37;;;;;;;7.85;3.60;;;;;;;;;;5038594;28;20068;-65
2022/10/10 04:32:02;;;;;;;7.90;3.65;;;;;;;;;;5048319;28;20121;-65
2022/10/10 04:34:27;;;;;;;10.48;3.88;;;;;;;;;;5047638;28;20029;-65
2022/10/10 04:36:53;;;;;;;9.73;3.90;;;;;;;;;;5030007;28;20027;-65
2022/10/10 04:39:19;;;;;;;10.95;3.55;;;;;;;;;;5048741;28;20053;-65
2022/10/10 04:41:48;;;;;;;7.72;3.55;;;;;;;;;;5048352;28;20514;-65
2022/10/10 04:44:15;;;;;;;9.05;3.85;;;;;;;;;;5048258;28;20128;-65
2022/10/10 04:46:40;;;;;;;8.00;3.65;;;;;;;;;;5048004;28;20086;-65
2022/10/10 04:49:05;;;;;;;6.55;3.30;;;;;;;;;;5048197;28;20075;-65
2022/10/10 04:51:31;;;;;;;9.23;4.50;;;;;;;;;;5046080;28;20514;-65
2022/10/10 04:53:57;;;;;;;5.38;2.90;;;;;;;;;;5036940;28;20033;-65
2022/10/10 04:56:24;;;;;;;6.18;3.28;;;;;;;;;;5044904;28;20040;-65
2022/10/10 04:58:50;;;;;;;5.40;3.15;;;;;;;;;;5048409;28;20039;-65
2022/10/10 05:01:15;;;;;;;8.65;3.45;;;;;;;;;;5048012;28;20036;-65
2022/10/10 05:03:41;;;;;;;8.20;3.83;;;;;;;;;;5054190;28;20056;-64
2022/10/10 05:06:06;;;;;;;10.88;3.97;;;;;;;;;;5068407;28;20009;-65
2022/10/10 05:08:31;;;;;;;9.75;4.13;;;;;;;;;;5067774;28;20425;-65
2022/10/10 05:10:57;;;;;;;7.85;3.78;;;;;;;;;;5068068;28;20117;-65
2022/10/10 05:13:22;;;;;;;9.25;4.07;;;;;;;;;;5049582;28;20162;-65
2022/10/10 05:15:50;;;;;;;9.63;3.80;;;;;;;;;;5067913;28;20155;-65
2022/10/10 05:18:16;;;;;;;8.30;3.83;;;;;;;;;;5045263;28;20497;-65
2022/10/10 05:20:42;;;;;;;8.98;3.90;;;;;;;;;;5067442;28;20043;-65
2022/10/10 05:23:08;;;;;;;9.05;4.10;;;;;;;;;;5067581;28;20033;-65
2022/10/10 05:25:33;;;;;;;7.90;3.65;;;;;;;;;;5067580;28;20174;-65
2022/10/10 05:27:58;;;;;;;6.78;3.78;;;;;;;;;;5067687;28;20028;-65
2022/10/10 05:30:24;;;;;;;12.65;4.50;;;;;;;;;;5068018;28;20028;-65
2022/10/10 05:32:49;;;;;;;8.05;4.15;;;;;;;;;;5067193;28;20064;-65
2022/10/10 05:35:15;;;;;;;10.98;5.18;;;;;;;;;;5053760;28;20033;-65
2022/10/10 05:37:40;;;;;;;11.20;4.18;;;;;;;;;;5047473;28;20506;-65
2022/10/10 05:40:06;;;;;;;8.40;3.88;;;;;;;;;;5047469;28;20106;-65
2022/10/10 05:42:31;;;;;;;8.13;4.18;;;;;;;;;;5047912;28;20021;-65
2022/10/10 05:44:57;;;;;;;6.88;3.88;;;;;;;;;;5042879;28;20607;-65
2022/10/10 05:47:22;;;;;;;6.57;3.60;;;;;;;;;;5027281;28;20037;-65
2022/10/10 05:49:48;;;;;;;8.40;3.67;;;;;;;;;;5027136;28;20045;-65
2022/10/10 05:52:13;;;;;;;7.03;3.55;;;;;;;;;;5027076;28;20045;-65
2022/10/10 05:54:39;;;;;;;10.52;3.40;;;;;;;;;;5026900;28;20040;-64
2022/10/10 05:57:04;;;;;;;12.80;3.78;;;;;;;;;;5046158;28;20020;-65
2022/10/10 05:59:29;;;;;;;10.80;3.60;;;;;;;;;;5057633;28;20498;-65
2022/10/10 06:01:56;;;;;;;7.65;4.15;;;;;;;;;;5066916;28;20036;-65
2022/10/10 06:04:22;;;;;;;11.65;4.40;;;;;;;;;;5065600;28;20171;-65
2022/10/10 06:06:47;;;;;;;8.85;4.25;;;;;;;;;;5066864;28;20036;-65
2022/10/10 06:09:13;;;;;;;10.05;3.67;;;;;;;;;;5067514;28;20029;-65
2022/10/10 06:11:38;;;;;;;7.03;3.35;;;;;;;;;;5047455;28;20131;-64
2022/10/10 06:14:04;;;;;;;11.85;3.92;;;;;;;;;;5065088;28;20041;-65
2022/10/10 06:16:29;;;;;;;7.93;4.28;;;;;;;;;;5065481;28;20032;-65
2022/10/10 06:18:57;;;;;;;10.98;4.13;;;;;;;;;;5053976;28;20032;-65
2022/10/10 06:21:24;;;;;;;9.02;3.90;;;;;;;;;;5045204;28;20056;-65
2022/10/10 06:23:50;;;;;;;9.73;3.63;;;;;;;;;;5045394;28;20025;-65
2022/10/10 06:26:16;;;;;;;7.70;3.97;;;;;;;;;;5046289;28;20074;-65
2022/10/10 06:28:41;;;;;;;12.00;4.65;;;;;;;;;;5046086;28;20422;-65
2022/10/10 06:31:09;;;;;;;7.72;3.38;;;;;;;;;;5045453;28;20034;-65
2022/10/10 06:33:36;;;;;;;9.40;4.07;;;;;;;;;;5055569;28;20025;-65
2022/10/10 06:36:06;;;;;;;7.18;3.88;;;;;;;;;;5028741;28;20218;-64
2022/10/10 06:38:38;;;;;;;9.35;3.83;;;;;;;;;;5045890;28;20037;-65
2022/10/10 06:41:05;;;;;;;7.38;3.85;;;;;;;;;;5044946;28;20041;-65
2022/10/10 06:43:31;;;;;;;7.97;4.00;;;;;;;;;;5046573;28;20029;-65
2022/10/10 06:45:57;;;;;;;9.38;4.40;;;;;;;;;;5046335;28;20025;-65
2022/10/10 06:48:22;;;;;;;7.38;3.80;;;;;;;;;;5046860;28;20555;-65
2022/10/10 06:51:00;;;;;;;8.75;4.20;;;;;;;;;;5046590;28;20524;-65
2022/10/10 06:53:26;;;;;;;13.43;4.43;;;;;;;;;;5046276;28;20029;-65
2022/10/10 06:55:55;;;;;;;8.35;3.55;;;;;;;;;;5045979;28;20037;-65
2022/10/10 06:58:21;;;;;;;14.77;4.10;;;;;;;;;;5047079;28;20037;-65
2022/10/10 07:00:54;;;;;;;8.23;3.85;;;;;;;;;;5045817;28;20033;-65
2022/10/10 07:03:20;;;;;;;11.30;4.38;;;;;;;;;;5046843;28;20086;-65
2022/10/10 07:05:54;;;;;;;11.60;4.68;;;;;;;;;;5046086;28;20112;-65
2022/10/10 07:08:21;;;;;;;9.63;3.80;;;;;;;;;;5046998;28;20040;-65
2022/10/10 07:10:47;;;;;;;12.90;4.15;;;;;;;;;;5043694;28;20029;-65
2022/10/10 07:13:13;;;;;;;8.38;3.78;;;;;;;;;;5025548;28;20218;-65
2022/10/10 07:15:39;;;;;;;12.15;4.25;;;;;;;;;;5044613;28;20021;-65
2022/10/10 07:18:05;;;;;;;7.70;3.53;;;;;;;;;;5045957;28;20418;-65
2022/10/10 07:20:30;;;;;;;8.82;3.95;;;;;;;;;;5047112;28;20041;-65
2022/10/10 07:22:55;;;;;;;16.02;4.03;;;;;;;;;;5033572;28;20120;-65
2022/10/10 07:25:21;;;;;;;4.22;2.30;;;;;;;;;;5046201;28;20040;-66
2022/10/10 07:27:46;;;;;;;7.80;4.03;;;;;;;;;;5048022;28;20104;-66
2022/10/10 07:30:12;;;;;;;6.70;3.50;;;;;;;;;;5044244;28;20063;-65
2022/10/10 07:32:37;;;;;;;10.77;4.20;;;;;;;;;;5046839;28;20045;-66
2022/10/10 07:35:04;;;;;;;11.18;3.75;;;;;;;;;;5046991;28;20041;-67
2022/10/10 07:37:29;;;;;;;8.05;4.00;;;;;;;;;;5045649;28;20037;-65
2022/10/10 07:39:54;;;;;;;8.60;3.65;;;;;;;;;;5045996;28;20051;-65
2022/10/10 07:42:20;;;;;;;9.60;3.90;;;;;;;;;;5028103;28;20504;-66
2022/10/10 07:44:45;;;;;;;9.98;4.13;;;;;;;;;;5045931;28;20582;-66
2022/10/10 07:47:11;;;;;;;8.05;3.95;;;;;;;;;;5046419;28;20124;-65
2022/10/10 07:49:36;;;;;;;7.25;3.47;;;;;;;;;;5045575;28;20040;-65
2022/10/10 07:52:02;;;;;;;8.13;4.10;;;;;;;;;;5044897;28;20474;-66
2022/10/10 07:54:29;;;;;;;5.60;3.20;;;;;;;;;;5045613;28;20885;-66
2022/10/10 07:56:54;;;;;;;8.90;4.30;;;;;;;;;;5041490;28;20600;-65
2022/10/10 07:59:20;;;;;;;7.55;4.13;;;;;;;;;;5039296;28;20095;-66
2022/10/10 08:01:45;;;;;;;6.88;3.53;;;;;;;;;;5017203;28;20468;-66
2022/10/10 08:04:10;;;;;;;8.55;2.90;;;;;;;;;;5020047;28;20115;-63
2022/10/10 08:06:36;;;;;;;9.40;3.88;;;;;;;;;;5033822;28;20419;-64
2022/10/10 08:09:01;;;;;;;13.48;6.47;;;;;;;;;;5046498;28;20075;-63
2022/10/10 08:11:26;;;;;;;10.38;4.90;;;;;;;;;;5049016;28;20025;-63
2022/10/10 08:13:52;;;;;;;9.32;3.38;;;;;;;;;;5047306;28;20735;-62
2022/10/10 08:16:18;;;;;;;12.23;4.05;;;;;;;;;;5048707;28;20033;-64
2022/10/10 08:18:43;;;;;;;7.15;4.07;;;;;;;;;;5042143;28;20413;-65
2022/10/10 08:21:12;;;;;;;8.48;3.25;;;;;;;;;;5036129;28;20042;-65
2022/10/10 08:23:37;;;;;;;15.23;3.83;;;;;;;;;;5038538;28;20131;-65
2022/10/10 08:26:06;;;;;;;11.32;3.55;;;;;;;;;;5049989;28;20147;-65
2022/10/10 08:28:31;;;;;;;5.78;3.45;;;;;;;;;;5047603;28;20033;-65
2022/10/10 08:30:57;;;;;;;6.90;3.60;;;;;;;;;;5046911;28;20105;-65
2022/10/10 08:33:26;;;;;;;7.40;3.22;;;;;;;;;;5049293;28;20028;-65
2022/10/10 08:35:51;;;;;;;6.00;3.97;;;;;;;;;;5048680;28;20044;-65
2022/10/10 08:38:17;;;;;;;8.25;3.60;;;;;;;;;;5048946;28;20033;-63
2022/10/10 08:40:45;;;;;;;11.55;3.55;;;;;;;;;;5049617;28;20041;-62
2022/10/10 08:43:20;;;;;;;9.88;3.80;;;;;;;;;;5049845;28;20029;-61
2022/10/10 08:45:47;;;;;;;9.80;3.97;;;;;;;;;;5039719;28;20028;-61
2022/10/10 08:48:19;;;;;;;9.15;4.15;;;;;;;;;;5028953;28;20818;-61
2022/10/10 08:50:54;;;;;;;10.45;5.10;;;;;;;;;;5029233;28;20037;-61
2022/10/10 08:53:39;;;;;;;10.77;5.20;;;;;;;;;;5028978;28;20053;-60
2022/10/10 08:56:06;;;;;;;12.93;4.88;;;;;;;;;;5027903;28;20521;-60
2022/10/10 08:58:36;;;;;;;10.73;5.03;;;;;;;;;;5029594;28;20060;-60
2022/10/10 09:01:24;;;;;;;15.75;6.80;;;;;;;;;;5029411;28;20104;-64
2022/10/10 09:03:51;;;;;;;12.45;4.40;;;;;;;;;;5028523;28;20021;-65
2022/10/10 09:06:47;;;;;;;7.78;4.55;;;;;;;;;;5028660;28;20506;-65
2022/10/10 09:09:34;;;;;;;12.35;4.82;;;;;;;;;;5028166;28;20052;-65
2022/10/10 09:12:13;;;;;;;13.05;5.00;;;;;;;;;;5026935;28;20309;-65
2022/10/10 09:14:54;;;;;;;15.27;5.15;;;;;;;;;;5027309;28;20586;-65
2022/10/10 09:17:37;;;;;;;10.13;4.72;;;;;;;;;;5033122;28;20045;-65
2022/10/10 09:20:42;;;;;;;12.25;5.95;;;;;;;;;;5048845;28;20036;-65
2022/10/10 09:23:20;;;;;;;15.75;6.40;;;;;;;;;;5048081;28;20040;-65
2022/10/10 09:25:56;;;;;;;11.73;4.70;;;;;;;;;;5030586;28;20017;-65
2022/10/10 09:29:03;;;;;;;10.60;5.18;;;;;;;;;;5048555;28;20045;-65
2022/10/10 09:31:37;;;;;;;10.10;4.78;;;;;;;;;;5037886;28;20033;-65
2022/10/10 09:34:12;;;;;;;8.30;4.57;;;;;;;;;;5048914;28;20120;-65
2022/10/10 09:36:37;;;;;;;12.95;5.00;;;;;;;;;;5049198;28;20461;-65
2022/10/10 09:39:15;;;;;;;10.30;4.53;;;;;;;;;;5048997;28;20039;-65
2022/10/10 09:41:46;;;;;;;9.48;4.80;;;;;;;;;;5048648;28;20179;-65
2022/10/10 09:44:13;;;;;;;12.70;4.55;;;;;;;;;;5048839;28;20029;-65
2022/10/10 09:46:39;;;;;;;10.70;5.13;;;;;;;;;;5049165;28;20028;-65
2022/10/10 09:49:05;;;;;;;9.65;4.80;;;;;;;;;;5047974;28;20041;-64
2022/10/10 09:51:31;;;;;;;10.00;5.07;;;;;;;;;;5048193;28;20037;-63
2022/10/10 09:53:57;;;;;;;9.60;4.68;;;;;;;;;;5043439;28;20041;-63
2022/10/10 09:56:30;;;;;;;10.70;4.95;;;;;;;;;;5046016;28;20048;-64
2022/10/10 09:58:56;;;;;;;11.25;4.78;;;;;;;;;;5017745;28;20021;-64
2022/10/10 10:01:32;;;;;;;18.52;11.85;;;;;;;;;;5032568;28;20482;-64
2022/10/10 10:04:16;;;;;;;12.27;4.93;;;;;;;;;;5033075;28;20049;-64
2022/10/10 10:06:44;;;;;;;8.00;4.10;;;;;;;;;;5043296;28;20446;-64
2022/10/10 10:09:17;;;;;;;12.05;4.38;;;;;;;;;;5046962;28;20522;-63
2022/10/10 10:11:44;;;;;;;11.10;4.00;;;;;;;;;;5047022;28;20040;-64
2022/10/10 10:14:29;;;;;;;9.43;4.30;;;;;;;;;;5045898;28;20033;-63
2022/10/10 10:17:05;;;;;;;12.98;5.03;;;;;;;;;;5046233;28;20017;-63
2022/10/10 10:19:38;;;;;;;11.32;4.20;;;;;;;;;;5041628;28;20104;-64
2022/10/10 10:22:04;;;;;;;11.43;4.32;;;;;;;;;;5048313;28;20475;-64
2022/10/10 10:24:35;;;;;;;11.10;4.75;;;;;;;;;;5046529;28;20040;-64
2022/10/10 10:27:16;;;;;;;20.60;5.57;;;;;;;;;;5040699;28;20040;-64
2022/10/10 10:29:46;;;;;;;10.05;4.32;;;;;;;;;;5033737;28;20033;-64
2022/10/10 10:32:29;;;;;;;11.15;4.53;;;;;;;;;;5045195;28;20043;-64
2022/10/10 10:34:54;;;;;;;15.88;5.65;;;;;;;;;;5046610;28;20029;-64
2022/10/10 10:37:24;;;;;;;9.43;5.20;;;;;;;;;;5047602;28;20029;-64
2022/10/10 10:40:15;;;;;;;12.30;5.22;;;;;;;;;;5047774;28;20067;-64
2022/10/10 10:43:02;;;;;;;15.00;5.20;;;;;;;;;;5029206;28;20037;-64
2022/10/10 10:45:36;;;;;;;9.57;4.88;;;;;;;;;;5047000;28;20029;-64
2022/10/10 10:48:19;;;;;;;15.10;5.10;;;;;;;;;;5048844;28;20035;-63
2022/10/10 10:51:23;;;;;;;14.32;4.25;;;;;;;;;;5058559;28;20128;-64
2022/10/10 10:54:21;;;;;;;11.85;4.40;;;;;;;;;;5037574;28;20072;-64
2022/10/10 10:56:51;;;;;;;16.90;5.30;;;;;;;;;;5033450;28;20040;-63
2022/10/10 10:59:31;;;;;;;11.95;5.18;;;;;;;;;;5047115;28;20068;-63
2022/10/10 11:02:25;;;;;;;12.55;4.53;;;;;;;;;;5047996;28;20021;-63
2022/10/10 11:05:00;;;;;;;;;;;;;;;;;;5022192;28;20433;-63
2022/10/10 11:07:50;;;;;;;7.95;3.67;;;;;;;;;;5031783;28;20399;-63
2022/10/10 11:10:49;;;;;;;8.50;3.90;;;;;;;;;;4996021;28;20068;-63
2022/10/10 11:13:27;;;;;;;8.20;3.58;;;;;;;;;;5027198;28;20054;-63
2022/10/10 11:15:58;;;;;;;17.10;3.97;;;;;;;;;;5030412;28;20603;-62
2022/10/10 11:18:34;;;;;;;8.88;3.55;;;;;;;;;;5046941;28;20045;-63
2022/10/10 11:21:28;;;;;;;9.88;4.10;;;;;;;;;;5047360;28;20055;-63
2022/10/10 11:24:21;;;;;;;8.40;4.57;;;;;;;;;;5044436;28;20045;-63
2022/10/10 11:26:54;;;;;;;9.27;3.60;;;;;;;;;;5047301;28;20164;-63
2022/10/10 11:29:31;;;;;;;9.23;3.65;;;;;;;;;;5046576;28;20119;-63
2022/10/10 11:32:01;;;;;;;11.15;3.58;;;;;;;;;;5047322;28;20752;-63
2022/10/10 11:34:34;;;;;;;9.05;4.22;;;;;;;;;;5047431;28;20025;-64
2022/10/10 11:37:06;;;;;;;12.18;3.95;;;;;;;;;;5046354;28;20033;-63
2022/10/10 11:39:49;;;;;;;11.55;4.57;;;;;;;;;;5047401;28;20041;-63
2022/10/10 11:42:16;;;;;;;10.77;4.50;;;;;;;;;;5047607;28;20060;-63
2022/10/10 11:44:49;;;;;;;8.98;4.50;;;;;;;;;;5050820;28;20104;-63
2022/10/10 11:47:27;;;;;;;10.15;4.30;;;;;;;;;;5049930;28;20033;-63
2022/10/10 11:50:17;;;;;;;7.32;3.78;;;;;;;;;;5051000;28;20094;-63
2022/10/10 11:53:01;;;;;;;7.50;3.55;;;;;;;;;;5051361;28;20504;-64
2022/10/10 11:56:01;;;;;;;10.40;4.32;;;;;;;;;;5054540;28;20038;-63
2022/10/10 11:58:41;;;;;;;12.63;4.28;;;;;;;;;;5031621;28;20040;-63
2022/10/10 12:01:23;;;;;;;6.65;4.05;;;;;;;;;;5070348;28;20115;-64
2022/10/10 12:03:51;;;;;;;9.13;3.88;;;;;;;;;;5048872;28;20095;-63
2022/10/10 12:06:27;;;;;;;13.40;4.88;;;;;;;;;;5048530;28;20031;-63
2022/10/10 12:09:06;;;;;;;10.60;4.70;;;;;;;;;;5048057;28;20107;-63
2022/10/10 12:11:49;;;;;;;8.75;4.15;;;;;;;;;;5050856;28;20056;-63
2022/10/10 12:14:18;;;;;;;8.45;3.92;;;;;;;;;;5050592;28;20048;-63
2022/10/10 12:16:44;;;;;;;10.65;4.45;;;;;;;;;;5050022;28;20055;-63
2022/10/10 12:19:21;;;;;;;10.88;4.60;;;;;;;;;;5050616;28;20539;-63
2022/10/10 12:22:04;;;;;;;11.40;3.97;;;;;;;;;;5040101;28;20029;-63
2022/10/10 12:25:04;;;;;;;15.32;4.47;;;;;;;;;;5037196;28;20086;-63
2022/10/10 12:28:00;;;;;;;11.13;4.15;;;;;;;;;;5050526;28;20461;-63
2022/10/10 12:30:26;;;;;;;14.50;3.88;;;;;;;;;;5047924;28;20058;-64
2022/10/10 12:32:53;;;;;;;10.60;3.95;;;;;;;;;;5048388;28;20033;-64
2022/10/10 12:35:39;;;;;;;11.85;4.80;;;;;;;;;;5050392;28;20037;-63
2022/10/10 12:38:04;;;;;;;8.48;3.83;;;;;;;;;;5049708;28;20025;-64
2022/10/10 12:40:35;;;;;;;16.27;4.38;;;;;;;;;;5050524;28;20025;-63
2022/10/10 12:43:20;;;;;;;8.05;4.07;;;;;;;;;;5050055;28;20033;-63
2022/10/10 12:45:56;;;;;;;7.07;3.95;;;;;;;;;;5045972;28;20498;-64
2022/10/10 12:48:22;;;;;;;12.95;4.20;;;;;;;;;;5050266;28;20029;-64
2022/10/10 12:50:57;;;;;;;11.68;4.20;;;;;;;;;;5049706;28;20029;-64
2022/10/10 12:53:25;;;;;;;11.75;3.70;;;;;;;;;;5056855;28;20032;-64
2022/10/10 12:55:56;;;;;;;11.85;4.15;;;;;;;;;;5041092;28;20025;-63
2022/10/10 12:58:26;;;;;;;9.73;4.00;;;;;;;;;;5029362;28;20021;-63
2022/10/10 13:00:52;;;;;;;8.95;3.75;;;;;;;;;;5037547;28;20029;-63
2022/10/10 13:03:31;;;;;;;11.98;4.30;;;;;;;;;;5040029;28;20029;-63
2022/10/10 13:06:05;;;;;;;13.63;4.10;;;;;;;;;;5049239;28;20025;-63
2022/10/10 13:08:31;;;;;;;11.23;3.78;;;;;;;;;;5048630;28;20410;-63
2022/10/10 13:11:05;;;;;;;11.45;4.05;;;;;;;;;;5049667;28;20025;-64
2022/10/10 13:13:31;;;;;;;11.43;3.85;;;;;;;;;;5048921;28;20049;-63
2022/10/10 13:16:03;;;;;;;15.20;4.10;;;;;;;;;;5048999;28;20041;-63
2022/10/10 13:18:49;;;;;;;13.23;3.92;;;;;;;;;;5049393;28;20041;-64
2022/10/10 13:21:18;;;;;;;10.43;3.90;;;;;;;;;;5048932;28;20198;-64
2022/10/10 13:23:47;;;;;;;9.27;4.00;;;;;;;;;;5048663;28;20555;-63
2022/10/10 13:26:26;;;;;;;9.02;4.18;;;;;;;;;;5049270;28;20099;-63
2022/10/10 13:28:55;;;;;;;9.77;3.85;;;;;;;;;;5048691;28;20029;-63
2022/10/10 13:31:24;;;;;;;8.98;4.43;;;;;;;;;;5046649;28;20021;-65
2022/10/10 13:33:49;;;;;;;10.00;4.10;;;;;;;;;;5049313;28;20120;-63
2022/10/10 13:36:19;;;;;;;15.88;4.72;;;;;;;;;;5048877;28;20116;-64
2022/10/10 13:38:46;;;;;;;8.45;4.35;;;;;;;;;;5031323;28;20513;-64
2022/10/10 13:41:12;;;;;;;12.50;5.50;;;;;;;;;;5044887;28;20032;-63
2022/10/10 13:43:39;;;;;;;11.18;4.82;;;;;;;;;;5044392;28;20048;-64
2022/10/10 13:46:05;;;;;;;16.20;5.03;;;;;;;;;;5047466;28;20063;-64
2022/10/10 13:48:33;;;;;;;12.30;5.55;;;;;;;;;;5047877;28;20029;-64
2022/10/10 13:51:05;;;;;;;12.63;4.57;;;;;;;;;;5047406;28;20103;-64
2022/10/10 13:53:44;;;;;;;11.48;5.15;;;;;;;;;;5046775;28;20029;-64
2022/10/10 13:56:19;;;;;;;13.63;5.38;;;;;;;;;;5047990;28;20056;-64
2022/10/10 13:58:49;;;;;;;17.70;5.45;;;;;;;;;;5030632;28;20035;-64
2022/10/10 14:01:26;;;;;;;14.82;5.22;;;;;;;;;;5040196;28;20043;-63
2022/10/10 14:03:55;;;;;;;10.65;4.20;;;;;;;;;;5038272;28;20683;-63
2022/10/10 14:06:24;;;;;;;18.70;6.40;;;;;;;;;;5048353;28;20550;-64
2022/10/10 14:08:51;;;;;;;13.90;4.70;;;;;;;;;;5047406;28;20095;-64
2022/10/10 14:11:19;;;;;;;10.60;4.95;;;;;;;;;;5048471;28;20036;-64
2022/10/10 14:13:48;;;;;;;14.35;5.43;;;;;;;;;;5047352;28;20071;-64
2022/10/10 14:16:16;;;;;;;13.27;4.80;;;;;;;;;;5048314;28;20037;-64
2022/10/10 14:18:42;;;;;;;15.68;5.47;;;;;;;;;;5053184;28;20037;-64
2022/10/10 14:21:08;;;;;;;9.02;5.57;;;;;;;;;;5044004;28;20044;-64
2022/10/10 14:23:35;;;;;;;14.18;6.20;;;;;;;;;;5047799;28;20425;-63
2022/10/10 14:26:00;;;;;;;11.57;5.90;;;;;;;;;;5048066;28;20398;-64
2022/10/10 14:28:30;;;;;;;11.77;5.80;;;;;;;;;;5048130;28;20024;-64
2022/10/10 14:30:55;;;;;;;13.45;5.90;;;;;;;;;;5047599;28;20037;-64
2022/10/10 14:33:21;;;;;;;10.05;5.70;;;;;;;;;;5047836;28;20036;-64
2022/10/10 14:35:49;;;;;;;17.50;6.80;;;;;;;;;;5047921;28;20043;-64
2022/10/10 14:38:15;;;;;;;14.55;7.43;;;;;;;;;;5048022;28;20039;-64
2022/10/10 14:40:43;;;;;;;14.02;7.00;;;;;;;;;;5048365;28;20111;-64
2022/10/10 14:43:08;;;;;;;15.15;6.88;;;;;;;;;;5047987;28;20029;-64
2022/10/10 14:45:33;;;;;;;18.00;7.35;;;;;;;;;;5056843;28;20421;-64
2022/10/10 14:47:59;;;;;;;17.50;7.55;;;;;;;;;;5068083;28;20051;-64
2022/10/10 14:50:29;;;;;;;18.27;8.23;;;;;;;;;;5067388;28;20028;-63
2022/10/10 14:52:54;;;;;;;12.25;7.38;;;;;;;;;;5056083;28;20029;-63
2022/10/10 14:55:20;;;;;;;12.95;7.43;;;;;;;;;;5047168;28;20029;-64
2022/10/10 14:57:45;;;;;;;23.08;9.80;;;;;;;;;;5047591;28;20120;-64